createdAt,value
2018-05-17T00:00:09.057Z,960.71
2018-05-17T00:01:08.973Z,960.70
2018-05-17T00:02:09.014Z,960.71
2018-05-17T00:03:09.000Z,960.73
2018-05-17T00:04:09.537Z,960.71
2018-05-17T00:06:33.056Z,960.70
2018-05-17T00:07:33.160Z,960.70
2018-05-17T00:08:33.119Z,960.72
2018-05-17T00:09:33.042Z,960.70
2018-05-17T00:10:33.041Z,960.65
2018-05-17T00:11:33.090Z,960.62
2018-05-17T00:12:33.059Z,960.62
2018-05-17T00:13:33.042Z,960.62
2018-05-17T00:14:33.058Z,960.60
2018-05-17T00:15:33.057Z,960.64
2018-05-17T00:16:33.054Z,960.65
2018-05-17T00:17:33.061Z,960.66
2018-05-17T00:18:33.113Z,960.62
2018-05-17T00:19:33.173Z,960.63
2018-05-17T00:20:34.679Z,960.62
2018-05-17T00:21:33.243Z,960.61
2018-05-17T00:22:33.102Z,960.61
2018-05-17T00:23:34.704Z,960.61
2018-05-17T00:24:34.695Z,960.61
2018-05-17T00:25:35.654Z,960.62
2018-05-17T00:26:33.125Z,960.67
2018-05-17T00:27:33.191Z,960.64
2018-05-17T00:28:33.127Z,960.65
2018-05-17T00:29:33.164Z,960.62
2018-05-17T00:30:33.065Z,960.65
2018-05-17T00:31:34.640Z,960.67
2018-05-17T00:32:33.133Z,960.66
2018-05-17T00:33:33.085Z,960.66
2018-05-17T00:34:33.125Z,960.65
2018-05-17T00:35:33.070Z,960.65
2018-05-17T00:36:33.129Z,960.65
2018-05-17T00:37:33.088Z,960.64
2018-05-17T00:38:33.107Z,960.69
2018-05-17T00:39:33.080Z,960.67
2018-05-17T00:40:33.079Z,960.60
2018-05-17T00:41:33.066Z,960.61
2018-05-17T00:42:33.066Z,960.60
2018-05-17T00:43:33.118Z,960.57
2018-05-17T00:44:33.071Z,960.62
2018-05-17T00:45:33.099Z,960.65
2018-05-17T00:46:33.091Z,960.64
2018-05-17T00:47:33.093Z,960.61
2018-05-17T00:48:33.074Z,960.61
2018-05-17T00:49:33.103Z,960.59
2018-05-17T00:50:33.104Z,960.59
2018-05-17T00:51:33.082Z,960.53
2018-05-17T00:52:33.101Z,960.60
2018-05-17T00:53:33.091Z,960.58
2018-05-17T00:54:33.103Z,960.54
2018-05-17T00:55:33.132Z,960.60
2018-05-17T00:56:33.136Z,960.60
2018-05-17T00:57:33.132Z,960.58
2018-05-17T00:58:33.091Z,960.56
2018-05-17T00:59:33.118Z,960.59
2018-05-17T01:00:33.144Z,960.58
2018-05-17T01:01:33.162Z,960.63
2018-05-17T01:02:33.094Z,960.63
2018-05-17T01:03:33.139Z,960.63
2018-05-17T01:04:33.106Z,960.62
2018-05-17T01:05:33.124Z,960.53
2018-05-17T01:06:33.096Z,960.62
2018-05-17T01:07:33.158Z,960.61
2018-05-17T01:08:33.186Z,960.58
2018-05-17T01:09:33.164Z,960.63
2018-05-17T01:10:33.103Z,960.61
2018-05-17T01:11:33.160Z,960.56
2018-05-17T01:12:33.105Z,960.55
2018-05-17T01:13:33.133Z,960.64
2018-05-17T01:14:35.166Z,960.54
2018-05-17T01:15:33.145Z,960.60
2018-05-17T01:16:33.132Z,960.59
2018-05-17T01:17:33.150Z,960.57
2018-05-17T01:18:33.127Z,960.58
2018-05-17T01:19:33.113Z,960.58
2018-05-17T01:20:33.163Z,960.60
2018-05-17T01:21:33.151Z,960.61
2018-05-17T01:22:33.123Z,960.67
2018-05-17T01:23:33.149Z,960.58
2018-05-17T01:24:33.146Z,960.66
2018-05-17T01:25:33.130Z,960.58
2018-05-17T01:26:33.136Z,960.59
2018-05-17T01:27:33.171Z,960.66
2018-05-17T01:28:35.087Z,960.56
2018-05-17T01:29:33.153Z,960.63
2018-05-17T01:30:33.146Z,960.58
2018-05-17T01:31:33.159Z,960.62
2018-05-17T01:32:33.147Z,960.61
2018-05-17T01:33:33.155Z,960.59
2018-05-17T01:34:33.174Z,960.64
2018-05-17T01:35:33.194Z,960.67
2018-05-17T01:36:33.129Z,960.70
2018-05-17T01:37:33.128Z,960.70
2018-05-17T01:38:33.126Z,960.69
2018-05-17T01:39:33.129Z,960.73
2018-05-17T01:40:33.138Z,960.71
2018-05-17T01:41:33.154Z,960.69
2018-05-17T01:42:33.143Z,960.71
2018-05-17T01:43:33.142Z,960.69
2018-05-17T01:44:33.208Z,960.72
2018-05-17T01:45:33.140Z,960.69
2018-05-17T01:46:33.192Z,960.74
2018-05-17T01:47:33.150Z,960.69
2018-05-17T01:48:33.149Z,960.73
2018-05-17T01:49:33.174Z,960.67
2018-05-17T01:50:33.155Z,960.70
2018-05-17T01:51:33.161Z,960.73
2018-05-17T01:52:33.204Z,960.73
2018-05-17T01:53:35.204Z,960.67
2018-05-17T01:54:35.129Z,960.69
2018-05-17T01:55:33.187Z,960.69
2018-05-17T01:56:33.186Z,960.65
2018-05-17T01:57:33.168Z,960.67
2018-05-17T01:58:33.176Z,960.67
2018-05-17T01:59:33.233Z,960.66
2018-05-17T02:00:33.174Z,960.62
2018-05-17T02:01:33.219Z,960.66
2018-05-17T02:02:33.167Z,960.67
2018-05-17T02:03:33.208Z,960.66
2018-05-17T02:04:33.194Z,960.66
2018-05-17T02:05:33.285Z,960.65
2018-05-17T02:06:33.204Z,960.68
2018-05-17T02:07:33.223Z,960.68
2018-05-17T02:08:33.198Z,960.70
2018-05-17T02:09:33.223Z,960.67
2018-05-17T02:10:33.299Z,960.66
2018-05-17T02:11:33.273Z,960.70
2018-05-17T02:12:33.264Z,960.73
2018-05-17T02:13:33.291Z,960.74
2018-05-17T02:14:33.228Z,960.71
2018-05-17T02:15:33.259Z,960.77
2018-05-17T02:16:33.264Z,960.73
2018-05-17T02:17:33.240Z,960.77
2018-05-17T02:18:33.252Z,960.77
2018-05-17T02:19:33.210Z,960.79
2018-05-17T02:20:35.238Z,960.80
2018-05-17T02:21:33.185Z,960.77
2018-05-17T02:22:33.278Z,960.76
2018-05-17T02:23:33.177Z,960.78
2018-05-17T02:24:33.220Z,960.83
2018-05-17T02:25:33.206Z,960.86
2018-05-17T02:26:33.290Z,960.81
2018-05-17T02:27:33.243Z,960.88
2018-05-17T02:28:33.180Z,960.90
2018-05-17T02:29:33.269Z,960.94
2018-05-17T02:30:33.267Z,960.92
2018-05-17T02:31:33.247Z,960.92
2018-05-17T02:32:33.203Z,960.91
2018-05-17T02:33:33.184Z,960.97
2018-05-17T02:34:33.186Z,960.91
2018-05-17T02:35:33.250Z,960.95
2018-05-17T02:36:33.253Z,960.96
2018-05-17T02:37:33.242Z,960.93
2018-05-17T02:38:33.239Z,960.97
2018-05-17T02:39:33.235Z,960.97
2018-05-17T02:40:33.192Z,960.97
2018-05-17T02:41:36.145Z,960.89
2018-05-17T02:42:33.241Z,960.98
2018-05-17T02:43:33.290Z,960.90
2018-05-17T02:44:35.209Z,960.91
2018-05-17T02:45:33.212Z,960.95
2018-05-17T02:46:33.256Z,960.90
2018-05-17T02:47:33.296Z,960.93
2018-05-17T02:48:33.335Z,960.92
2018-05-17T02:49:33.283Z,960.97
2018-05-17T02:50:33.260Z,960.98
2018-05-17T02:51:33.201Z,960.93
2018-05-17T02:52:33.220Z,960.89
2018-05-17T02:53:33.216Z,960.92
2018-05-17T02:54:33.227Z,960.99
2018-05-17T02:55:33.237Z,960.91
2018-05-17T02:56:33.203Z,960.96
2018-05-17T02:57:33.249Z,960.95
2018-05-17T02:58:33.227Z,960.94
2018-05-17T02:59:33.261Z,960.99
2018-05-17T03:00:33.303Z,960.98
2018-05-17T03:01:33.267Z,961.00
2018-05-17T03:02:33.241Z,960.98
2018-05-17T03:03:33.341Z,960.98
2018-05-17T03:04:33.286Z,960.97
2018-05-17T03:05:33.311Z,960.97
2018-05-17T03:06:33.296Z,960.95
2018-05-17T03:07:33.249Z,960.96
2018-05-17T03:08:33.299Z,961.02
2018-05-17T03:09:33.298Z,960.96
2018-05-17T03:10:33.297Z,961.01
2018-05-17T03:11:33.283Z,960.97
2018-05-17T03:12:33.315Z,961.03
2018-05-17T03:13:33.244Z,961.02
2018-05-17T03:14:33.240Z,961.04
2018-05-17T03:15:33.209Z,961.05
2018-05-17T03:16:33.215Z,961.06
2018-05-17T03:17:33.311Z,961.05
2018-05-17T03:18:33.271Z,961.06
2018-05-17T03:19:33.229Z,961.15
2018-05-17T03:20:33.214Z,961.11
2018-05-17T03:21:33.261Z,961.15
2018-05-17T03:22:33.208Z,961.16
2018-05-17T03:23:33.210Z,961.11
2018-05-17T03:24:33.283Z,961.13
2018-05-17T03:25:33.293Z,961.12
2018-05-17T03:26:33.238Z,961.10
2018-05-17T03:27:33.245Z,961.14
2018-05-17T03:28:33.264Z,961.14
2018-05-17T03:29:33.290Z,961.12
2018-05-17T03:30:33.223Z,961.16
2018-05-17T03:31:33.214Z,961.17
2018-05-17T03:32:35.114Z,961.23
2018-05-17T03:33:33.308Z,961.21
2018-05-17T03:34:33.226Z,961.19
2018-05-17T03:35:33.216Z,961.21
2018-05-17T03:36:33.217Z,961.21
2018-05-17T03:37:33.214Z,961.17
2018-05-17T03:38:33.215Z,961.24
2018-05-17T03:39:33.297Z,961.18
2018-05-17T03:40:33.260Z,961.17
2018-05-17T03:41:33.245Z,961.18
2018-05-17T03:42:33.230Z,961.15
2018-05-17T03:43:33.240Z,961.15
2018-05-17T03:44:33.271Z,961.12
2018-05-17T03:45:33.250Z,961.13
2018-05-17T03:46:33.277Z,961.10
2018-05-17T03:47:33.320Z,961.11
2018-05-17T03:48:33.293Z,961.09
2018-05-17T03:49:33.221Z,961.10
2018-05-17T03:50:33.244Z,961.15
2018-05-17T03:51:33.220Z,961.13
2018-05-17T03:52:33.218Z,961.14
2018-05-17T03:53:41.915Z,961.13
2018-05-17T03:55:30.303Z,961.09
2018-05-17T03:56:28.694Z,961.14
2018-05-17T03:57:30.187Z,961.12
2018-05-17T03:58:28.673Z,961.14
2018-05-17T03:59:28.722Z,961.16
2018-05-17T04:00:28.791Z,961.18
2018-05-17T04:01:28.664Z,961.17
2018-05-17T04:02:30.213Z,961.12
2018-05-17T04:03:28.744Z,961.14
2018-05-17T04:04:28.785Z,961.17
2018-05-17T04:05:28.726Z,961.15
2018-05-17T04:06:28.716Z,961.18
2018-05-17T04:07:28.737Z,961.18
2018-05-17T04:08:29.002Z,961.16
2018-05-17T04:09:40.373Z,961.20
2018-05-17T04:11:24.201Z,961.17
2018-05-17T04:12:24.122Z,961.18
2018-05-17T04:14:18.449Z,961.22
2018-05-17T04:15:18.504Z,961.21
2018-05-17T04:16:18.416Z,961.24
2018-05-17T04:21:42.579Z,961.23
2018-05-17T04:22:37.474Z,961.23
2018-05-17T04:23:38.025Z,961.25
2018-05-17T04:24:44.190Z,961.22
2018-05-17T04:25:37.356Z,961.24
2018-05-17T04:27:02.176Z,961.22
2018-05-17T04:27:39.156Z,961.28
2018-05-17T04:28:58.780Z,961.23
2018-05-17T04:29:37.605Z,961.24
2018-05-17T04:32:05.287Z,961.26
2018-05-17T04:33:17.574Z,961.29
2018-05-17T04:35:34.020Z,961.28
2018-05-17T04:36:45.361Z,961.29
2018-05-17T04:37:34.116Z,961.32
2018-05-17T04:38:33.979Z,961.30
2018-05-17T04:39:34.009Z,961.37
2018-05-17T04:40:33.865Z,961.29
2018-05-17T04:41:34.089Z,961.33
2018-05-17T04:42:46.465Z,961.37
2018-05-17T04:44:33.784Z,961.38
2018-05-17T04:45:45.438Z,961.38
2018-05-17T04:47:27.790Z,961.39
2018-05-17T04:48:28.609Z,961.43
2018-05-17T04:50:22.030Z,961.39
2018-05-17T04:51:22.128Z,961.40
2018-05-17T04:52:22.087Z,961.48
2018-05-17T04:53:22.122Z,961.46
2018-05-17T04:54:22.051Z,961.45
2018-05-17T04:55:22.077Z,961.45
2018-05-17T04:56:22.212Z,961.45
2018-05-17T04:57:22.065Z,961.42
2018-05-17T04:58:22.022Z,961.46
2018-05-17T04:59:22.057Z,961.47
2018-05-17T05:00:22.022Z,961.49
2018-05-17T05:01:22.021Z,961.50
2018-05-17T05:02:22.024Z,961.50
2018-05-17T05:03:22.020Z,961.55
2018-05-17T05:04:22.034Z,961.53
2018-05-17T05:05:22.038Z,961.59
2018-05-17T05:06:22.026Z,961.55
2018-05-17T05:07:22.030Z,961.54
2018-05-17T05:08:22.028Z,961.54
2018-05-17T05:09:22.025Z,961.56
2018-05-17T05:10:22.110Z,961.58
2018-05-17T05:11:22.065Z,961.55
2018-05-17T05:12:22.028Z,961.59
2018-05-17T05:13:22.028Z,961.55
2018-05-17T05:14:22.035Z,961.53
2018-05-17T05:15:22.028Z,961.54
2018-05-17T05:16:23.574Z,961.56
2018-05-17T05:17:22.030Z,961.55
2018-05-17T05:18:22.029Z,961.59
2018-05-17T05:19:22.032Z,961.62
2018-05-17T05:20:22.031Z,961.61
2018-05-17T05:21:22.034Z,961.57
2018-05-17T05:22:22.038Z,961.67
2018-05-17T05:23:22.032Z,961.58
2018-05-17T05:24:22.035Z,961.57
2018-05-17T05:25:22.102Z,961.60
2018-05-17T05:26:22.032Z,961.56
2018-05-17T05:27:22.034Z,961.60
2018-05-17T05:28:22.037Z,961.65
2018-05-17T05:29:22.034Z,961.62
2018-05-17T05:30:22.034Z,961.63
2018-05-17T05:31:22.043Z,961.62
2018-05-17T05:32:22.035Z,961.61
2018-05-17T05:33:22.037Z,961.63
2018-05-17T05:34:22.040Z,961.65
2018-05-17T05:35:22.066Z,961.54
2018-05-17T05:36:22.069Z,961.61
2018-05-17T05:37:22.043Z,961.64
2018-05-17T05:38:22.044Z,961.66
2018-05-17T05:39:22.074Z,961.66
2018-05-17T05:40:22.048Z,961.64
2018-05-17T05:41:22.069Z,961.64
2018-05-17T05:42:22.045Z,961.62
2018-05-17T05:43:22.138Z,961.67
2018-05-17T05:44:22.045Z,961.68
2018-05-17T05:45:22.069Z,961.71
2018-05-17T05:46:22.045Z,961.69
2018-05-17T05:47:22.072Z,961.69
2018-05-17T05:48:22.064Z,961.72
2018-05-17T05:49:22.058Z,961.72
2018-05-17T05:50:22.081Z,961.68
2018-05-17T05:51:22.052Z,961.69
2018-05-17T05:52:22.067Z,961.69
2018-05-17T05:53:22.053Z,961.70
2018-05-17T05:54:22.058Z,961.72
2018-05-17T05:55:22.057Z,961.74
2018-05-17T05:56:22.059Z,961.72
2018-05-17T05:57:22.085Z,961.73
2018-05-17T05:58:22.059Z,961.75
2018-05-17T05:59:22.060Z,961.76
2018-05-17T06:00:22.065Z,961.72
2018-05-17T06:01:22.063Z,961.79
2018-05-17T06:02:22.145Z,961.79
2018-05-17T06:03:22.066Z,961.80
2018-05-17T06:04:22.076Z,961.85
2018-05-17T06:05:22.068Z,961.83
2018-05-17T06:06:22.072Z,961.83
2018-05-17T06:07:22.076Z,961.85
2018-05-17T06:08:22.075Z,961.78
2018-05-17T06:09:22.082Z,961.83
2018-05-17T06:10:22.080Z,961.82
2018-05-17T06:11:22.075Z,961.88
2018-05-17T06:12:22.076Z,961.92
2018-05-17T06:13:22.079Z,961.86
2018-05-17T06:14:22.081Z,961.87
2018-05-17T06:15:22.087Z,961.90
2018-05-17T06:16:22.086Z,961.93
2018-05-17T06:17:22.104Z,961.87
2018-05-17T06:18:22.090Z,961.91
2018-05-17T06:19:33.343Z,961.94
2018-05-17T06:20:30.722Z,961.95
2018-05-17T06:22:52.942Z,962.00
2018-05-17T06:24:17.172Z,961.99
2018-05-17T06:26:16.592Z,962.05
2018-05-17T06:27:13.776Z,962.02
2018-05-17T06:28:56.023Z,962.13
2018-05-17T06:32:02.488Z,962.12
2018-05-17T06:36:39.149Z,962.15
2018-05-17T06:39:34.355Z,962.14
2018-05-17T06:40:12.744Z,962.11
2018-05-17T06:41:12.807Z,962.11
2018-05-17T06:44:15.928Z,962.11
2018-05-17T06:44:46.529Z,962.07
2018-05-17T06:46:46.504Z,962.06
2018-05-17T06:48:08.690Z,962.06
2018-05-17T06:50:05.279Z,962.06
2018-05-17T06:50:38.486Z,962.08
2018-05-17T06:52:33.889Z,962.09
2018-05-17T06:53:43.761Z,962.03
2018-05-17T06:55:28.526Z,962.09
2018-05-17T06:56:28.436Z,962.08
2018-05-17T06:59:09.949Z,962.16
2018-05-17T07:00:09.987Z,962.13
2018-05-17T07:01:09.909Z,962.18
2018-05-17T07:03:37.035Z,962.18
2018-05-17T07:06:00.630Z,962.30
2018-05-17T07:07:00.090Z,962.23
2018-05-17T07:08:00.051Z,962.27
2018-05-17T07:08:59.978Z,962.31
2018-05-17T07:10:00.174Z,962.25
2018-05-17T07:11:00.284Z,962.31
2018-05-17T07:12:01.017Z,962.32
2018-05-17T07:13:12.704Z,962.34
2018-05-17T07:14:57.383Z,962.38
2018-05-17T07:16:09.883Z,962.30
2018-05-17T07:17:55.477Z,962.31
2018-05-17T07:20:22.545Z,962.46
2018-05-17T07:21:20.887Z,962.45
2018-05-17T07:23:24.408Z,962.49
2018-05-17T07:24:17.286Z,962.52
2018-05-17T07:25:17.249Z,962.50
2018-05-17T07:26:17.280Z,962.52
2018-05-17T07:27:24.308Z,962.53
2018-05-17T07:28:18.299Z,962.55
2018-05-17T07:29:17.313Z,962.60
2018-05-17T07:30:17.222Z,962.60
2018-05-17T07:31:17.253Z,962.61
2018-05-17T07:32:26.842Z,962.67
2018-05-17T07:34:12.833Z,962.67
2018-05-17T07:35:12.661Z,962.64
2018-05-17T07:37:08.093Z,962.67
2018-05-17T07:38:08.060Z,962.67
2018-05-17T07:39:08.041Z,962.73
2018-05-17T07:40:08.081Z,962.75
2018-05-17T07:41:09.597Z,962.72
2018-05-17T07:42:08.120Z,962.71
2018-05-17T07:43:08.136Z,962.68
2018-05-17T07:44:08.182Z,962.66
2018-05-17T07:45:08.238Z,962.70
2018-05-17T07:46:08.232Z,962.69
2018-05-17T07:47:08.198Z,962.69
2018-05-17T07:48:08.219Z,962.70
2018-05-17T07:49:08.070Z,962.71
2018-05-17T07:50:08.159Z,962.77
2018-05-17T07:51:08.046Z,962.80
2018-05-17T07:52:08.186Z,962.78
2018-05-17T07:53:08.081Z,962.76
2018-05-17T07:54:08.122Z,962.79
2018-05-17T07:55:08.140Z,962.84
2018-05-17T07:56:08.178Z,962.82
2018-05-17T07:57:08.296Z,962.78
2018-05-17T07:58:08.484Z,962.82
2018-05-17T07:59:10.086Z,962.80
2018-05-17T08:00:08.126Z,962.81
2018-05-17T08:01:08.148Z,962.86
2018-05-17T08:02:08.314Z,962.80
2018-05-17T08:03:08.169Z,962.89
2018-05-17T08:04:08.145Z,962.79
2018-05-17T08:05:08.139Z,962.84
2018-05-17T08:06:08.403Z,962.84
2018-05-17T08:07:11.008Z,962.84
2018-05-17T08:09:40.233Z,962.84
2018-05-17T08:10:40.181Z,962.80
2018-05-17T08:12:34.674Z,962.79
2018-05-17T08:13:36.075Z,962.81
2018-05-17T08:15:29.988Z,962.73
2018-05-17T08:16:30.018Z,962.79
2018-05-17T08:17:29.859Z,962.71
2018-05-17T08:18:29.893Z,962.72
2018-05-17T08:19:29.956Z,962.72
2018-05-17T08:20:30.051Z,962.72
2018-05-17T08:21:29.983Z,962.75
2018-05-17T08:22:29.971Z,962.78
2018-05-17T08:23:30.000Z,962.71
2018-05-17T08:24:29.908Z,962.72
2018-05-17T08:25:30.241Z,962.74
2018-05-17T08:26:30.145Z,962.68
2018-05-17T08:27:30.049Z,962.70
2018-05-17T08:28:51.111Z,962.73
2018-05-17T08:29:30.153Z,962.69
2018-05-17T08:30:30.115Z,962.69
2018-05-17T08:31:30.079Z,962.71
2018-05-17T08:32:30.052Z,962.70
2018-05-17T08:33:30.987Z,962.75
2018-05-17T08:34:30.237Z,962.72
2018-05-17T08:35:30.001Z,962.77
2018-05-17T08:36:30.107Z,962.75
2018-05-17T08:37:30.102Z,962.73
2018-05-17T08:38:30.063Z,962.73
2018-05-17T08:39:30.057Z,962.75
2018-05-17T08:40:30.100Z,962.75
2018-05-17T08:41:30.055Z,962.77
2018-05-17T08:42:30.109Z,962.72
2018-05-17T08:43:30.067Z,962.76
2018-05-17T08:44:30.052Z,962.75
2018-05-17T08:45:30.067Z,962.77
2018-05-17T08:46:30.022Z,962.79
2018-05-17T08:47:30.055Z,962.76
2018-05-17T08:48:30.149Z,962.83
2018-05-17T08:49:30.096Z,962.82
2018-05-17T08:50:30.048Z,962.82
2018-05-17T08:51:30.179Z,962.82
2018-05-17T08:52:30.059Z,962.81
2018-05-17T08:53:40.782Z,962.82
2018-05-17T08:55:24.572Z,962.87
2018-05-17T08:56:24.540Z,962.82
2018-05-17T08:58:18.997Z,962.82
2018-05-17T08:59:18.841Z,962.86
2018-05-17T09:01:13.393Z,962.89
2018-05-17T09:02:13.383Z,962.88
2018-05-17T09:03:13.271Z,962.93
2018-05-17T09:04:13.306Z,962.91
2018-05-17T09:05:13.286Z,962.90
2018-05-17T09:06:13.313Z,962.93
2018-05-17T09:07:13.293Z,962.93
2018-05-17T09:08:13.306Z,962.93
2018-05-17T09:09:13.309Z,962.93
2018-05-17T09:10:13.310Z,962.93
2018-05-17T09:11:13.312Z,963.03
2018-05-17T09:12:13.320Z,963.01
2018-05-17T09:13:13.325Z,963.01
2018-05-17T09:14:13.335Z,963.05
2018-05-17T09:15:13.335Z,963.03
2018-05-17T09:16:13.338Z,963.06
2018-05-17T09:17:13.344Z,963.06
2018-05-17T09:18:13.354Z,963.05
2018-05-17T09:19:13.357Z,963.04
2018-05-17T09:20:13.399Z,963.01
2018-05-17T09:21:13.368Z,963.02
2018-05-17T09:22:13.376Z,962.96
2018-05-17T09:23:13.374Z,963.04
2018-05-17T09:24:13.385Z,963.03
2018-05-17T09:25:13.409Z,963.07
2018-05-17T09:26:13.392Z,963.04
2018-05-17T09:27:13.396Z,963.02
2018-05-17T09:28:13.403Z,963.08
2018-05-17T09:29:13.457Z,963.06
2018-05-17T09:30:13.417Z,963.13
2018-05-17T09:31:13.423Z,963.14
2018-05-17T09:32:13.429Z,963.15
2018-05-17T09:33:13.437Z,963.14
2018-05-17T09:34:13.483Z,963.13
2018-05-17T09:35:13.443Z,963.21
2018-05-17T09:36:13.453Z,963.20
2018-05-17T09:37:13.456Z,963.22
2018-05-17T09:38:13.475Z,963.26
2018-05-17T09:39:13.465Z,963.25
2018-05-17T09:40:13.471Z,963.22
2018-05-17T09:41:13.476Z,963.25
2018-05-17T09:42:13.480Z,963.21
2018-05-17T09:43:13.554Z,963.24
2018-05-17T09:44:13.582Z,963.27
2018-05-17T09:45:13.502Z,963.31
2018-05-17T09:46:13.518Z,963.30
2018-05-17T09:47:13.525Z,963.27
2018-05-17T09:48:13.517Z,963.26
2018-05-17T09:49:13.519Z,963.26
2018-05-17T09:50:13.560Z,963.30
2018-05-17T09:51:13.535Z,963.30
2018-05-17T09:52:13.537Z,963.32
2018-05-17T09:53:13.604Z,963.29
2018-05-17T09:54:13.586Z,963.32
2018-05-17T09:55:13.553Z,963.30
2018-05-17T09:56:13.561Z,963.30
2018-05-17T09:57:13.569Z,963.31
2018-05-17T09:58:13.573Z,963.31
2018-05-17T09:59:13.578Z,963.31
2018-05-17T10:00:13.583Z,963.25
2018-05-17T10:01:13.589Z,963.31
2018-05-17T10:02:13.596Z,963.28
2018-05-17T10:03:13.601Z,963.33
2018-05-17T10:04:13.613Z,963.29
2018-05-17T10:05:13.614Z,963.30
2018-05-17T10:06:13.627Z,963.24
2018-05-17T10:07:13.629Z,963.26
2018-05-17T10:08:13.629Z,963.29
2018-05-17T10:09:13.641Z,963.29
2018-05-17T10:10:13.649Z,963.32
2018-05-17T10:11:13.653Z,963.27
2018-05-17T10:12:13.653Z,963.28
2018-05-17T10:13:13.662Z,963.32
2018-05-17T10:14:13.692Z,963.34
2018-05-17T10:15:13.670Z,963.34
2018-05-17T10:16:13.679Z,963.31
2018-05-17T10:17:13.684Z,963.31
2018-05-17T10:18:13.693Z,963.31
2018-05-17T10:19:13.694Z,963.34
2018-05-17T10:20:13.712Z,963.40
2018-05-17T10:21:13.706Z,963.31
2018-05-17T10:22:13.711Z,963.35
2018-05-17T10:23:13.784Z,963.35
2018-05-17T10:24:13.722Z,963.33
2018-05-17T10:25:13.750Z,963.33
2018-05-17T10:26:13.736Z,963.32
2018-05-17T10:27:13.742Z,963.30
2018-05-17T10:28:13.751Z,963.30
2018-05-17T10:29:13.755Z,963.25
2018-05-17T10:30:13.758Z,963.23
2018-05-17T10:31:13.767Z,963.21
2018-05-17T10:32:13.776Z,963.14
2018-05-17T10:33:13.781Z,963.17
2018-05-17T10:34:13.783Z,963.18
2018-05-17T10:35:13.798Z,963.19
2018-05-17T10:36:13.795Z,963.16
2018-05-17T10:37:13.800Z,963.16
2018-05-17T10:38:13.812Z,963.20
2018-05-17T10:39:13.845Z,963.18
2018-05-17T10:40:13.818Z,963.24
2018-05-17T10:41:13.827Z,963.24
2018-05-17T10:42:13.864Z,963.31
2018-05-17T10:43:13.834Z,963.22
2018-05-17T10:44:13.842Z,963.27
2018-05-17T10:45:13.871Z,963.26
2018-05-17T10:46:13.851Z,963.25
2018-05-17T10:47:13.855Z,963.27
2018-05-17T10:48:13.862Z,963.27
2018-05-17T10:49:13.873Z,963.29
2018-05-17T10:50:13.891Z,963.27
2018-05-17T10:51:13.877Z,963.32
2018-05-17T10:52:13.885Z,963.31
2018-05-17T10:53:13.919Z,963.32
2018-05-17T10:54:13.897Z,963.29
2018-05-17T10:55:13.899Z,963.29
2018-05-17T10:56:13.908Z,963.31
2018-05-17T10:57:13.914Z,963.32
2018-05-17T10:58:13.919Z,963.28
2018-05-17T10:59:13.926Z,963.38
2018-05-17T11:00:13.950Z,963.33
2018-05-17T11:01:13.937Z,963.31
2018-05-17T11:02:13.944Z,963.33
2018-05-17T11:03:13.947Z,963.36
2018-05-17T11:04:13.957Z,963.41
2018-05-17T11:05:13.963Z,963.37
2018-05-17T11:06:13.966Z,963.37
2018-05-17T11:07:13.971Z,963.36
2018-05-17T11:08:13.977Z,963.32
2018-05-17T11:09:13.981Z,963.36
2018-05-17T11:10:13.987Z,963.37
2018-05-17T11:11:13.988Z,963.37
2018-05-17T11:12:14.096Z,963.35
2018-05-17T11:13:14.007Z,963.32
2018-05-17T11:14:14.012Z,963.36
2018-05-17T11:15:14.048Z,963.37
2018-05-17T11:16:14.046Z,963.41
2018-05-17T11:17:14.026Z,963.42
2018-05-17T11:18:14.034Z,963.42
2018-05-17T11:19:14.038Z,963.47
2018-05-17T11:20:14.047Z,963.47
2018-05-17T11:21:14.049Z,963.49
2018-05-17T11:22:14.056Z,963.50
2018-05-17T11:23:14.068Z,963.51
2018-05-17T11:24:14.091Z,963.49
2018-05-17T11:25:14.072Z,963.52
2018-05-17T11:26:14.079Z,963.47
2018-05-17T11:27:14.084Z,963.49
2018-05-17T11:28:14.095Z,963.46
2018-05-17T11:29:14.101Z,963.42
2018-05-17T11:30:14.102Z,963.41
2018-05-17T11:31:14.107Z,963.46
2018-05-17T11:32:14.112Z,963.50
2018-05-17T11:33:14.118Z,963.48
2018-05-17T11:34:14.122Z,963.48
2018-05-17T11:35:14.126Z,963.57
2018-05-17T11:36:14.134Z,963.51
2018-05-17T11:37:14.140Z,963.48
2018-05-17T11:38:14.144Z,963.51
2018-05-17T11:39:14.151Z,963.50
2018-05-17T11:40:14.157Z,963.52
2018-05-17T11:41:14.168Z,963.50
2018-05-17T11:42:14.172Z,963.50
2018-05-17T11:43:14.173Z,963.48
2018-05-17T11:44:14.216Z,963.57
2018-05-17T11:45:14.185Z,963.55
2018-05-17T11:46:14.191Z,963.50
2018-05-17T11:47:14.196Z,963.54
2018-05-17T11:48:14.205Z,963.52
2018-05-17T11:49:14.208Z,963.51
2018-05-17T11:50:14.214Z,963.43
2018-05-17T11:51:14.221Z,963.47
2018-05-17T11:52:14.245Z,963.44
2018-05-17T11:53:14.235Z,963.43
2018-05-17T11:54:14.238Z,963.42
2018-05-17T11:55:14.242Z,963.46
2018-05-17T11:56:14.248Z,963.43
2018-05-17T11:57:14.272Z,963.48
2018-05-17T11:58:14.261Z,963.45
2018-05-17T11:59:14.262Z,963.46
2018-05-17T12:00:14.269Z,963.47
2018-05-17T12:01:14.276Z,963.44
2018-05-17T12:02:22.994Z,963.41
2018-05-17T12:04:09.139Z,963.49
2018-05-17T12:05:08.926Z,963.46
2018-05-17T12:07:03.335Z,963.50
2018-05-17T12:08:03.312Z,963.56
2018-05-17T12:09:58.125Z,963.54
2018-05-17T12:10:57.693Z,963.53
2018-05-17T12:12:52.087Z,963.56
2018-05-17T12:13:52.077Z,963.53
2018-05-17T12:15:46.492Z,963.51
2018-05-17T12:16:46.492Z,963.51
2018-05-17T12:18:40.911Z,963.53
2018-05-17T12:19:40.848Z,963.52
2018-05-17T12:21:35.252Z,963.53
2018-05-17T12:22:35.276Z,963.49
2018-05-17T12:24:29.665Z,963.49
2018-05-17T12:25:29.625Z,963.52
2018-05-17T12:27:24.026Z,963.51
2018-05-17T12:28:24.027Z,963.44
2018-05-17T12:30:19.408Z,963.48
2018-05-17T12:31:19.367Z,963.53
2018-05-17T12:32:19.364Z,963.55
2018-05-17T12:33:19.381Z,963.50
2018-05-17T12:34:19.398Z,963.52
2018-05-17T12:35:19.392Z,963.52
2018-05-17T12:36:19.396Z,963.58
2018-05-17T12:37:19.402Z,963.55
2018-05-17T12:38:19.442Z,963.51
2018-05-17T12:39:19.445Z,963.56
2018-05-17T12:40:19.413Z,963.56
2018-05-17T12:41:19.423Z,963.54
2018-05-17T12:42:19.424Z,963.55
2018-05-17T12:43:19.427Z,963.52
2018-05-17T12:44:19.435Z,963.57
2018-05-17T12:45:19.444Z,963.57
2018-05-17T12:46:19.455Z,963.52
2018-05-17T12:47:19.454Z,963.56
2018-05-17T12:48:19.458Z,963.52
2018-05-17T12:49:19.466Z,963.58
2018-05-17T12:50:19.467Z,963.56
2018-05-17T12:51:19.475Z,963.56
2018-05-17T12:52:19.485Z,963.54
2018-05-17T12:53:19.486Z,963.50
2018-05-17T12:54:19.492Z,963.52
2018-05-17T12:55:19.498Z,963.51
2018-05-17T12:56:19.504Z,963.49
2018-05-17T12:57:19.526Z,963.57
2018-05-17T12:58:19.513Z,963.57
2018-05-17T12:59:19.520Z,963.54
2018-05-17T13:00:19.530Z,963.55
2018-05-17T13:01:19.533Z,963.50
2018-05-17T13:02:19.552Z,963.57
2018-05-17T13:03:19.555Z,963.55
2018-05-17T13:04:19.547Z,963.54
2018-05-17T13:05:19.562Z,963.56
2018-05-17T13:06:19.558Z,963.59
2018-05-17T13:07:19.643Z,963.57
2018-05-17T13:08:21.534Z,963.56
2018-05-17T13:09:20.623Z,963.60
2018-05-17T13:10:19.585Z,963.58
2018-05-17T13:11:19.595Z,963.53
2018-05-17T13:12:19.837Z,963.55
2018-05-17T13:13:19.828Z,963.55
2018-05-17T13:14:19.784Z,963.57
2018-05-17T13:15:19.809Z,963.55
2018-05-17T13:16:24.936Z,963.56
2018-05-17T13:17:19.688Z,963.53
2018-05-17T13:18:19.629Z,963.53
2018-05-17T13:19:19.857Z,963.53
2018-05-17T13:20:19.671Z,963.54
2018-05-17T13:21:19.645Z,963.52
2018-05-17T13:22:19.645Z,963.52
2018-05-17T13:23:19.676Z,963.52
2018-05-17T13:24:19.725Z,963.48